PWSweather.com
Personal Weather Stations
Station Observations
KCAFRAZI5
West End Drive Area, Frazier Park, CA 93225

West End Drive AreaFrazier Park, CA 93225

Lat: 34.82109, Lon: -118.96053

Elevation: 4940

Station Type: Davis Vantage Pro 2

http://www.fpweather.com

High Low Average
Temperature 84.3°F29.1°C 57.1°F13.9°C 72.2°F22.3°C
Dew Point 47.8°F8.8°C 25.8°F-3.4°C 37.0°F2.8°C
Winds 11.0 mph 17.7 kmh Calm Calm 3.0 mph S4.8 kmh S
Wind Gusts 15.0 mph24.1 kmh -- 6.0 mph9.7 kmh
Humidity 43% 18% 29%
Pressure 29.76 in1007.8 mb 29.67 in1004.7 mb -
Precipitation 0.00 in0.0 mm - -
Hour Temp Dew Point Humidity Winds Wind Gusts Pressure Precip Precip Rate Daily Precip Total
12:00 AM 65.7°F18.7°C 25.8°F-3.4°C 22% 3.0 mph SSE4.8 kmh SSE 5.0 mph8.0 kmh 29.73 in1006.8 mb 0.00 in0.0 mm 0.00 in0.0 mm 0.00 in0.0 mm
12:15 AM 65.1°F18.4°C 26.4°F-3.1°C 23% 3.0 mph S4.8 kmh S 4.0 mph6.4 kmh 29.74 in1007.1 mb 0.00 in0.0 mm 0.00 in0.0 mm 0.00 in0.0 mm
12:30 AM 65.4°F18.6°C 26.7°F-2.9°C 23% 3.0 mph S4.8 kmh S 4.0 mph6.4 kmh 29.74 in1007.1 mb 0.00 in0.0 mm 0.00 in0.0 mm 0.00 in0.0 mm
12:45 AM 64.6°F18.1°C 27.0°F-2.8°C 24% 4.0 mph S6.4 kmh S 4.0 mph6.4 kmh 29.73 in1006.8 mb 0.00 in0.0 mm 0.00 in0.0 mm 0.00 in0.0 mm
01:00 AM 63.8°F17.7°C 27.3°F-2.6°C 25% 3.0 mph S4.8 kmh S 3.0 mph4.8 kmh 29.73 in1006.8 mb 0.00 in0.0 mm 0.00 in0.0 mm 0.00 in0.0 mm
01:15 AM 63.5°F17.5°C 27.1°F-2.7°C 25% 2.0 mph S3.2 kmh S 4.0 mph6.4 kmh 29.74 in1007.1 mb 0.00 in0.0 mm 0.00 in0.0 mm 0.00 in0.0 mm
01:30 AM 62.5°F16.9°C 27.2°F-2.7°C 26% 4.0 mph S6.4 kmh S 5.0 mph8.0 kmh 29.73 in1006.8 mb 0.00 in0.0 mm 0.00 in0.0 mm 0.00 in0.0 mm
01:45 AM 62.7°F17.1°C 27.4°F-2.6°C 26% 4.0 mph S6.4 kmh S 5.0 mph8.0 kmh 29.72 in1006.4 mb 0.00 in0.0 mm 0.00 in0.0 mm 0.00 in0.0 mm
02:00 AM 62.5°F16.9°C 28.1°F-2.2°C 27% 2.0 mph SSE3.2 kmh SSE 2.0 mph3.2 kmh 29.71 in1006.1 mb 0.00 in0.0 mm 0.00 in0.0 mm 0.00 in0.0 mm
02:15 AM 62.7°F17.1°C 28.3°F-2.1°C 27% 7.0 mph SSE11.3 kmh SSE 10.0 mph16.1 kmh 29.71 in1006.1 mb 0.00 in0.0 mm 0.00 in0.0 mm 0.00 in0.0 mm
02:30 AM 62.8°F17.1°C 28.4°F-2.0°C 27% 4.0 mph SSE6.4 kmh SSE 7.0 mph11.3 kmh 29.71 in1006.1 mb 0.00 in0.0 mm 0.00 in0.0 mm 0.00 in0.0 mm
02:45 AM 61.2°F16.2°C 29.5°F-1.4°C 30% 5.0 mph SSE8.0 kmh SSE 7.0 mph11.3 kmh 29.70 in1005.8 mb 0.00 in0.0 mm 0.00 in0.0 mm 0.00 in0.0 mm
03:00 AM 61.6°F16.4°C 29.9°F-1.2°C 30% 2.0 mph S3.2 kmh S 4.0 mph6.4 kmh 29.70 in1005.8 mb 0.00 in0.0 mm 0.00 in0.0 mm 0.00 in0.0 mm
03:15 AM 60.1°F15.6°C 29.4°F-1.4°C 31% Calm Calm 3.0 mph4.8 kmh 29.71 in1006.1 mb 0.00 in0.0 mm 0.00 in0.0 mm 0.00 in0.0 mm
03:30 AM 60.5°F15.8°C 30.5°F-0.8°C 32% 4.0 mph S6.4 kmh S 6.0 mph9.7 kmh 29.72 in1006.4 mb 0.00 in0.0 mm 0.00 in0.0 mm 0.00 in0.0 mm
03:45 AM 59.4°F15.2°C 31.8°F-0.1°C 35% 4.0 mph S6.4 kmh S 4.0 mph6.4 kmh 29.72 in1006.4 mb 0.00 in0.0 mm 0.00 in0.0 mm 0.00 in0.0 mm
04:00 AM 58.8°F14.9°C 31.2°F-0.4°C 35% 6.0 mph S9.7 kmh S 9.0 mph14.5 kmh 29.71 in1006.1 mb 0.00 in0.0 mm 0.00 in0.0 mm 0.00 in0.0 mm
04:15 AM 58.8°F14.9°C 31.2°F-0.4°C 35% 5.0 mph SSE8.0 kmh SSE 7.0 mph11.3 kmh 29.72 in1006.4 mb 0.00 in0.0 mm 0.00 in0.0 mm 0.00 in0.0 mm
04:30 AM 58.0°F14.4°C 31.2°F-0.4°C 36% 9.0 mph SSE14.5 kmh SSE 10.0 mph16.1 kmh 29.74 in1007.1 mb 0.00 in0.0 mm 0.00 in0.0 mm 0.00 in0.0 mm
04:45 AM 57.7°F14.3°C 31.0°F-0.6°C 36% 5.0 mph SSE8.0 kmh SSE 9.0 mph14.5 kmh 29.74 in1007.1 mb 0.00 in0.0 mm 0.00 in0.0 mm 0.00 in0.0 mm
05:00 AM 57.1°F13.9°C 31.1°F-0.5°C 37% 7.0 mph SSE11.3 kmh SSE 7.0 mph11.3 kmh 29.74 in1007.1 mb 0.00 in0.0 mm 0.00 in0.0 mm 0.00 in0.0 mm
05:15 AM 57.4°F14.1°C 30.7°F-0.7°C 36% 5.0 mph S8.0 kmh S 9.0 mph14.5 kmh 29.75 in1007.5 mb 0.00 in0.0 mm 0.00 in0.0 mm 0.00 in0.0 mm
05:30 AM 58.0°F14.4°C 31.2°F-0.4°C 36% 6.0 mph SSE9.7 kmh SSE 6.0 mph9.7 kmh 29.75 in1007.5 mb 0.00 in0.0 mm 0.00 in0.0 mm 0.00 in0.0 mm
05:45 AM 58.6°F14.8°C 30.3°F-0.9°C 34% 1.0 mph SSE1.6 kmh SSE 5.0 mph8.0 kmh 29.76 in1007.8 mb 0.00 in0.0 mm 0.00 in0.0 mm 0.00 in0.0 mm
06:00 AM 59.5°F15.3°C 30.4°F-0.9°C 33% 5.0 mph SSE8.0 kmh SSE 5.0 mph8.0 kmh 29.75 in1007.5 mb 0.00 in0.0 mm 0.00 in0.0 mm 0.00 in0.0 mm
06:15 AM 60.6°F15.9°C 29.8°F-1.2°C 31% 5.0 mph SSE8.0 kmh SSE 6.0 mph9.7 kmh 29.75 in1007.5 mb 0.00 in0.0 mm 0.00 in0.0 mm 0.00 in0.0 mm
06:30 AM 62.3°F16.8°C 29.7°F-1.3°C 29% 5.0 mph SSE8.0 kmh SSE 7.0 mph11.3 kmh 29.75 in1007.5 mb 0.00 in0.0 mm 0.00 in0.0 mm 0.00 in0.0 mm
06:45 AM 64.6°F18.1°C 30.8°F-0.7°C 28% 4.0 mph SSE6.4 kmh SSE 6.0 mph9.7 kmh 29.74 in1007.1 mb 0.00 in0.0 mm 0.00 in0.0 mm 0.00 in0.0 mm
07:00 AM 67.5°F19.7°C 31.4°F-0.3°C 26% 5.0 mph SSE8.0 kmh SSE 6.0 mph9.7 kmh 29.73 in1006.8 mb 0.00 in0.0 mm 0.00 in0.0 mm 0.00 in0.0 mm
07:15 AM 69.4°F20.8°C 31.1°F-0.5°C 24% 2.0 mph SSE3.2 kmh SSE 3.0 mph4.8 kmh 29.72 in1006.4 mb 0.00 in0.0 mm 0.00 in0.0 mm 0.00 in0.0 mm
07:30 AM 72.3°F22.4°C 32.5°F0.3°C 23% Calm Calm -- 29.72 in1006.4 mb 0.00 in0.0 mm 0.00 in0.0 mm 0.00 in0.0 mm
07:45 AM 75.7°F24.3°C 33.0°F0.6°C 21% 2.0 mph SSE3.2 kmh SSE 3.0 mph4.8 kmh 29.70 in1005.8 mb 0.00 in0.0 mm 0.00 in0.0 mm 0.00 in0.0 mm
08:00 AM 76.3°F24.6°C 33.5°F0.8°C 21% Calm Calm 3.0 mph4.8 kmh 29.68 in1005.1 mb 0.00 in0.0 mm 0.00 in0.0 mm 0.00 in0.0 mm
08:15 AM 77.0°F25.0°C 34.1°F1.2°C 21% 2.0 mph N3.2 kmh N 3.0 mph4.8 kmh 29.69 in1005.4 mb 0.00 in0.0 mm 0.00 in0.0 mm 0.00 in0.0 mm
08:30 AM 78.2°F25.7°C 36.3°F2.4°C 22% 3.0 mph N4.8 kmh N 5.0 mph8.0 kmh 29.70 in1005.8 mb 0.00 in0.0 mm 0.00 in0.0 mm 0.00 in0.0 mm
08:45 AM 78.6°F25.9°C 35.4°F1.9°C 21% 7.0 mph 11.3 kmh 7.0 mph11.3 kmh 29.70 in1005.8 mb 0.00 in0.0 mm 0.00 in0.0 mm 0.00 in0.0 mm
09:00 AM 79.2°F26.2°C 35.9°F2.2°C 21% 4.0 mph NW6.4 kmh NW 5.0 mph8.0 kmh 29.69 in1005.4 mb 0.00 in0.0 mm 0.00 in0.0 mm 0.00 in0.0 mm
09:15 AM 79.9°F26.6°C 34.0°F1.1°C 19% 2.0 mph NNW3.2 kmh NNW 6.0 mph9.7 kmh 29.70 in1005.8 mb 0.00 in0.0 mm 0.00 in0.0 mm 0.00 in0.0 mm
09:30 AM 80.7°F27.1°C 37.2°F2.9°C 21% 3.0 mph NW4.8 kmh NW 7.0 mph11.3 kmh 29.71 in1006.1 mb 0.00 in0.0 mm 0.00 in0.0 mm 0.00 in0.0 mm
09:45 AM 81.0°F27.2°C 36.2°F2.3°C 20% 3.0 mph N4.8 kmh N 10.0 mph16.1 kmh 29.70 in1005.8 mb 0.00 in0.0 mm 0.00 in0.0 mm 0.00 in0.0 mm
10:00 AM 79.5°F26.4°C 36.2°F2.3°C 21% 7.0 mph NW11.3 kmh NW 9.0 mph14.5 kmh 29.70 in1005.8 mb 0.00 in0.0 mm 0.00 in0.0 mm 0.00 in0.0 mm
10:15 AM 78.8°F26.0°C 36.8°F2.7°C 22% 6.0 mph 9.7 kmh 7.0 mph11.3 kmh 29.70 in1005.8 mb 0.00 in0.0 mm 0.00 in0.0 mm 0.00 in0.0 mm
10:30 AM 78.2°F25.7°C 33.9°F1.1°C 20% 3.0 mph WNW4.8 kmh WNW 7.0 mph11.3 kmh 29.72 in1006.4 mb 0.00 in0.0 mm 0.00 in0.0 mm 0.00 in0.0 mm
10:45 AM 80.1°F26.7°C 34.2°F1.2°C 19% 6.0 mph NW9.7 kmh NW 7.0 mph11.3 kmh 29.72 in1006.4 mb 0.00 in0.0 mm 0.00 in0.0 mm 0.00 in0.0 mm
11:00 AM 80.8°F27.1°C 36.0°F2.2°C 20% 3.0 mph NW4.8 kmh NW 9.0 mph14.5 kmh 29.71 in1006.1 mb 0.00 in0.0 mm 0.00 in0.0 mm 0.00 in0.0 mm
11:15 AM 81.8°F27.7°C 35.6°F2.0°C 19% 2.0 mph NNW3.2 kmh NNW 6.0 mph9.7 kmh 29.71 in1006.1 mb 0.00 in0.0 mm 0.00 in0.0 mm 0.00 in0.0 mm
11:30 AM 83.6°F28.7°C 35.7°F2.1°C 18% 6.0 mph NNW9.7 kmh NNW 9.0 mph14.5 kmh 29.71 in1006.1 mb 0.00 in0.0 mm 0.00 in0.0 mm 0.00 in0.0 mm
11:45 AM 83.0°F28.3°C 36.5°F2.5°C 19% 3.0 mph NNW4.8 kmh NNW 10.0 mph16.1 kmh 29.70 in1005.8 mb 0.00 in0.0 mm 0.00 in0.0 mm 0.00 in0.0 mm
12:00 PM 83.0°F28.3°C 36.5°F2.5°C 19% 6.0 mph NW9.7 kmh NW 15.0 mph24.1 kmh 29.69 in1005.4 mb 0.00 in0.0 mm 0.00 in0.0 mm 0.00 in0.0 mm
12:15 PM 83.0°F28.3°C 39.1°F3.9°C 21% 3.0 mph N4.8 kmh N 7.0 mph11.3 kmh 29.69 in1005.4 mb 0.00 in0.0 mm 0.00 in0.0 mm 0.00 in0.0 mm
12:30 PM 80.8°F27.1°C 39.6°F4.2°C 23% 11.0 mph N17.7 kmh N 12.0 mph19.3 kmh 29.70 in1005.8 mb 0.00 in0.0 mm 0.00 in0.0 mm 0.00 in0.0 mm
12:45 PM 80.7°F27.1°C 40.6°F4.8°C 24% 6.0 mph WNW9.7 kmh WNW 9.0 mph14.5 kmh 29.71 in1006.1 mb 0.00 in0.0 mm 0.00 in0.0 mm 0.00 in0.0 mm
01:00 PM 80.1°F26.7°C 39.0°F3.9°C 23% 6.0 mph N9.7 kmh N 10.0 mph16.1 kmh 29.71 in1006.1 mb 0.00 in0.0 mm 0.00 in0.0 mm 0.00 in0.0 mm
01:15 PM 80.1°F26.7°C 39.0°F3.9°C 23% 6.0 mph N9.7 kmh N 7.0 mph11.3 kmh 29.71 in1006.1 mb 0.00 in0.0 mm 0.00 in0.0 mm 0.00 in0.0 mm
01:30 PM 80.1°F26.7°C 37.9°F3.3°C 22% 4.0 mph NW6.4 kmh NW 9.0 mph14.5 kmh 29.72 in1006.4 mb 0.00 in0.0 mm 0.00 in0.0 mm 0.00 in0.0 mm
01:45 PM 82.2°F27.9°C 38.4°F3.6°C 21% 4.0 mph SW6.4 kmh SW 5.0 mph8.0 kmh 29.71 in1006.1 mb 0.00 in0.0 mm 0.00 in0.0 mm 0.00 in0.0 mm
02:00 PM 83.4°F28.6°C 38.2°F3.4°C 20% 3.0 mph N4.8 kmh N 9.0 mph14.5 kmh 29.69 in1005.4 mb 0.00 in0.0 mm 0.00 in0.0 mm 0.00 in0.0 mm
02:15 PM 83.0°F28.3°C 37.8°F3.2°C 20% 5.0 mph NW8.0 kmh NW 5.0 mph8.0 kmh 29.68 in1005.1 mb 0.00 in0.0 mm 0.00 in0.0 mm 0.00 in0.0 mm
02:30 PM 82.6°F28.1°C 39.9°F4.4°C 22% 10.0 mph NNW16.1 kmh NNW 12.0 mph19.3 kmh 29.69 in1005.4 mb 0.00 in0.0 mm 0.00 in0.0 mm 0.00 in0.0 mm
02:45 PM 83.4°F28.6°C 40.6°F4.8°C 22% 7.0 mph N11.3 kmh N 12.0 mph19.3 kmh 29.68 in1005.1 mb 0.00 in0.0 mm 0.00 in0.0 mm 0.00 in0.0 mm
03:00 PM 83.0°F28.3°C 40.3°F4.6°C 22% 3.0 mph NNE4.8 kmh NNE 8.0 mph12.9 kmh 29.67 in1004.7 mb 0.00 in0.0 mm 0.00 in0.0 mm 0.00 in0.0 mm
03:15 PM 84.3°F29.1°C 41.4°F5.2°C 22% 3.0 mph N4.8 kmh N 7.0 mph11.3 kmh 29.67 in1004.7 mb 0.00 in0.0 mm 0.00 in0.0 mm 0.00 in0.0 mm
03:30 PM 83.9°F28.8°C 42.2°F5.7°C 23% 3.0 mph N4.8 kmh N 7.0 mph11.3 kmh 29.68 in1005.1 mb 0.00 in0.0 mm 0.00 in0.0 mm 0.00 in0.0 mm
03:45 PM 82.6°F28.1°C 43.3°F6.3°C 25% 4.0 mph NNE6.4 kmh NNE 5.0 mph8.0 kmh 29.68 in1005.1 mb 0.00 in0.0 mm 0.00 in0.0 mm 0.00 in0.0 mm
04:00 PM 82.0°F27.8°C 42.8°F6.0°C 25% 1.0 mph NNW1.6 kmh NNW 7.0 mph11.3 kmh 29.68 in1005.1 mb 0.00 in0.0 mm 0.00 in0.0 mm 0.00 in0.0 mm
04:15 PM 82.4°F28.0°C 43.1°F6.2°C 25% 2.0 mph N3.2 kmh N 6.0 mph9.7 kmh 29.69 in1005.4 mb 0.00 in0.0 mm 0.00 in0.0 mm 0.00 in0.0 mm
04:30 PM 81.6°F27.6°C 42.4°F5.8°C 25% 4.0 mph N6.4 kmh N 5.0 mph8.0 kmh 29.70 in1005.8 mb 0.00 in0.0 mm 0.00 in0.0 mm 0.00 in0.0 mm
04:45 PM 80.8°F27.1°C 42.8°F6.0°C 26% 3.0 mph N4.8 kmh N 7.0 mph11.3 kmh 29.70 in1005.8 mb 0.00 in0.0 mm 0.00 in0.0 mm 0.00 in0.0 mm
05:00 PM 80.5°F26.9°C 42.5°F5.8°C 26% 2.0 mph 3.2 kmh 9.0 mph14.5 kmh 29.70 in1005.8 mb 0.00 in0.0 mm 0.00 in0.0 mm 0.00 in0.0 mm
05:15 PM 80.1°F26.7°C 43.1°F6.2°C 27% Calm Calm 7.0 mph11.3 kmh 29.70 in1005.8 mb 0.00 in0.0 mm 0.00 in0.0 mm 0.00 in0.0 mm
05:30 PM 79.0°F26.1°C 42.2°F5.7°C 27% 4.0 mph NNE6.4 kmh NNE 6.0 mph9.7 kmh 29.69 in1005.4 mb 0.00 in0.0 mm 0.00 in0.0 mm 0.00 in0.0 mm
05:45 PM 77.5°F25.3°C 43.7°F6.5°C 30% 4.0 mph NW6.4 kmh NW 4.0 mph6.4 kmh 29.71 in1006.1 mb 0.00 in0.0 mm 0.00 in0.0 mm 0.00 in0.0 mm
06:00 PM 76.6°F24.8°C 44.6°F7.0°C 32% 1.0 mph NNW1.6 kmh NNW 3.0 mph4.8 kmh 29.72 in1006.4 mb 0.00 in0.0 mm 0.00 in0.0 mm 0.00 in0.0 mm
06:15 PM 75.9°F24.4°C 45.6°F7.6°C 34% 1.0 mph N1.6 kmh N 5.0 mph8.0 kmh 29.72 in1006.4 mb 0.00 in0.0 mm 0.00 in0.0 mm 0.00 in0.0 mm
06:30 PM 75.2°F24.0°C 45.7°F7.6°C 35% 2.0 mph N3.2 kmh N 5.0 mph8.0 kmh 29.68 in1005.1 mb 0.00 in0.0 mm 0.00 in0.0 mm 0.00 in0.0 mm
06:45 PM 74.7°F23.7°C 45.3°F7.4°C 35% Calm Calm 1.0 mph1.6 kmh 29.69 in1005.4 mb 0.00 in0.0 mm 0.00 in0.0 mm 0.00 in0.0 mm
07:00 PM 74.2°F23.4°C 45.6°F7.6°C 36% Calm Calm 3.0 mph4.8 kmh 29.69 in1005.4 mb 0.00 in0.0 mm 0.00 in0.0 mm 0.00 in0.0 mm
07:15 PM 73.5°F23.1°C 46.4°F8.0°C 38% Calm Calm 2.0 mph3.2 kmh 29.70 in1005.8 mb 0.00 in0.0 mm 0.00 in0.0 mm 0.00 in0.0 mm
07:30 PM 72.8°F22.7°C 47.1°F8.4°C 40% 1.0 mph NNE1.6 kmh NNE 1.0 mph1.6 kmh 29.68 in1005.1 mb 0.00 in0.0 mm 0.00 in0.0 mm 0.00 in0.0 mm
07:45 PM 72.1°F22.3°C 47.8°F8.8°C 42% Calm Calm 1.0 mph1.6 kmh 29.68 in1005.1 mb 0.00 in0.0 mm 0.00 in0.0 mm 0.00 in0.0 mm
08:00 PM 71.2°F21.8°C 47.0°F8.3°C 42% Calm Calm -- 29.69 in1005.4 mb 0.00 in0.0 mm 0.00 in0.0 mm 0.00 in0.0 mm
08:15 PM 69.9°F21.1°C 46.4°F8.0°C 43% Calm Calm -- 29.69 in1005.4 mb 0.00 in0.0 mm 0.00 in0.0 mm 0.00 in0.0 mm
08:30 PM 69.9°F21.1°C 46.4°F8.0°C 43% Calm Calm 2.0 mph3.2 kmh 29.68 in1005.1 mb 0.00 in0.0 mm 0.00 in0.0 mm 0.00 in0.0 mm
08:45 PM 69.9°F21.1°C 46.4°F8.0°C 43% 2.0 mph SSE3.2 kmh SSE 5.0 mph8.0 kmh 29.68 in1005.1 mb 0.00 in0.0 mm 0.00 in0.0 mm 0.00 in0.0 mm
09:00 PM 69.5°F20.8°C 45.4°F7.4°C 42% 3.0 mph S4.8 kmh S 4.0 mph6.4 kmh 29.68 in1005.1 mb 0.00 in0.0 mm 0.00 in0.0 mm 0.00 in0.0 mm
09:15 PM 69.4°F20.8°C 44.7°F7.1°C 41% 3.0 mph S4.8 kmh S 3.0 mph4.8 kmh 29.69 in1005.4 mb 0.00 in0.0 mm 0.00 in0.0 mm 0.00 in0.0 mm
09:30 PM 68.9°F20.5°C 43.6°F6.4°C 40% 3.0 mph SSE4.8 kmh SSE 3.0 mph4.8 kmh 29.70 in1005.8 mb 0.00 in0.0 mm 0.00 in0.0 mm 0.00 in0.0 mm
09:45 PM 68.9°F20.5°C 43.0°F6.1°C 39% 5.0 mph S8.0 kmh S 6.0 mph9.7 kmh 29.71 in1006.1 mb 0.00 in0.0 mm 0.00 in0.0 mm 0.00 in0.0 mm
10:00 PM 68.5°F20.3°C 41.9°F5.5°C 38% 6.0 mph SSE9.7 kmh SSE 7.0 mph11.3 kmh 29.71 in1006.1 mb 0.00 in0.0 mm 0.00 in0.0 mm 0.00 in0.0 mm
10:15 PM 68.9°F20.5°C 41.6°F5.3°C 37% 2.0 mph S3.2 kmh S 3.0 mph4.8 kmh 29.71 in1006.1 mb 0.00 in0.0 mm 0.00 in0.0 mm 0.00 in0.0 mm
10:30 PM 68.7°F20.4°C 41.4°F5.2°C 37% Calm Calm -- 29.70 in1005.8 mb 0.00 in0.0 mm 0.00 in0.0 mm 0.00 in0.0 mm
10:45 PM 67.7°F19.8°C 41.2°F5.1°C 38% 4.0 mph SSE6.4 kmh SSE 5.0 mph8.0 kmh 29.70 in1005.8 mb 0.00 in0.0 mm 0.00 in0.0 mm 0.00 in0.0 mm
11:00 PM 66.7°F19.3°C 41.0°F5.0°C 39% 4.0 mph SSE6.4 kmh SSE 6.0 mph9.7 kmh 29.70 in1005.8 mb 0.00 in0.0 mm 0.00 in0.0 mm 0.00 in0.0 mm
11:15 PM 66.4°F19.1°C 40.7°F4.8°C 39% 1.0 mph SSE1.6 kmh SSE 2.0 mph3.2 kmh 29.70 in1005.8 mb 0.00 in0.0 mm 0.00 in0.0 mm 0.00 in0.0 mm
11:30 PM 65.9°F18.8°C 40.9°F4.9°C 40% 3.0 mph S4.8 kmh S 4.0 mph6.4 kmh 29.71 in1006.1 mb 0.00 in0.0 mm 0.00 in0.0 mm 0.00 in0.0 mm
11:45 PM 65.4°F18.6°C 40.5°F4.7°C 40% 3.0 mph S4.8 kmh S 3.0 mph4.8 kmh 29.71 in1006.1 mb 0.00 in0.0 mm 0.00 in0.0 mm 0.00 in0.0 mm